createdAt,value
2022-07-28T00:01:18.438Z,100.00
2022-07-28T00:03:48.940Z,100.00
2022-07-28T00:06:17.810Z,100.00
2022-07-28T00:08:45.941Z,100.00
2022-07-28T00:11:14.106Z,100.00
2022-07-28T00:13:43.451Z,100.00
2022-07-28T00:16:11.687Z,100.00
2022-07-28T00:18:39.727Z,100.00
2022-07-28T00:21:07.843Z,100.00
2022-07-28T00:23:39.632Z,100.00
2022-07-28T00:26:09.040Z,100.00
2022-07-28T00:28:37.713Z,100.00
2022-07-28T00:31:07.832Z,100.00
2022-07-28T00:33:37.067Z,100.00
2022-07-28T00:36:06.394Z,100.00
2022-07-28T00:38:34.558Z,100.00
2022-07-28T00:41:12.690Z,100.00
2022-07-28T00:43:41.621Z,100.00
2022-07-28T00:46:11.292Z,100.00
2022-07-28T00:48:40.421Z,100.00
2022-07-28T00:51:09.914Z,100.00
2022-07-28T00:53:38.354Z,100.00
2022-07-28T00:56:07.355Z,100.00
2022-07-28T00:58:36.366Z,100.00
2022-07-28T01:01:05.369Z,100.00
2022-07-28T01:03:36.221Z,100.00
2022-07-28T01:06:08.665Z,100.00
2022-07-28T01:08:51.158Z,100.00
2022-07-28T01:11:24.004Z,100.00
2022-07-28T01:13:55.151Z,100.00
2022-07-28T01:16:23.709Z,100.00
2022-07-28T01:18:59.569Z,100.00
2022-07-28T01:21:32.422Z,100.00
2022-07-28T01:24:06.672Z,100.00
2022-07-28T01:26:41.602Z,100.00
2022-07-28T01:29:20.073Z,100.00
2022-07-28T01:31:52.972Z,100.00
2022-07-28T01:34:26.488Z,100.00
2022-07-28T01:36:57.449Z,100.00
2022-07-28T01:39:28.566Z,100.00
2022-07-28T01:41:57.499Z,100.00
2022-07-28T01:44:27.589Z,100.00
2022-07-28T01:46:58.924Z,100.00
2022-07-28T01:49:27.961Z,100.00
2022-07-28T01:51:57.814Z,100.00
2022-07-28T01:54:28.439Z,100.00
2022-07-28T01:56:57.548Z,100.00
2022-07-28T01:59:26.226Z,100.00
2022-07-28T02:01:54.829Z,100.00
2022-07-28T02:04:25.198Z,100.00
2022-07-28T02:06:54.472Z,100.00
2022-07-28T02:09:24.241Z,100.00
2022-07-28T02:11:54.365Z,100.00
2022-07-28T02:14:24.122Z,100.00
2022-07-28T02:16:54.573Z,100.00
2022-07-28T02:19:24.919Z,100.00
2022-07-28T02:21:54.641Z,100.00
2022-07-28T02:24:26.374Z,100.00
2022-07-28T02:26:58.905Z,100.00
2022-07-28T02:29:49.770Z,100.00
2022-07-28T02:32:27.197Z,100.00
2022-07-28T02:35:01.682Z,100.00
2022-07-28T02:37:36.351Z,100.00
2022-07-28T02:40:06.306Z,100.00
2022-07-28T02:42:36.074Z,100.00
2022-07-28T02:45:06.344Z,100.00
2022-07-28T02:47:38.756Z,100.00
2022-07-28T02:50:09.202Z,100.00
2022-07-28T02:52:38.339Z,100.00
2022-07-28T02:55:07.921Z,100.00
2022-07-28T02:57:36.299Z,100.00
2022-07-28T03:00:05.381Z,100.00
2022-07-28T03:02:36.709Z,100.00
2022-07-28T03:05:08.682Z,100.00
2022-07-28T03:07:51.073Z,100.00
2022-07-28T03:10:33.880Z,100.00
2022-07-28T03:13:04.136Z,100.00
2022-07-28T03:15:32.445Z,100.00
2022-07-28T03:18:00.735Z,100.00
2022-07-28T03:20:29.064Z,100.00
2022-07-28T03:22:59.172Z,100.00
2022-07-28T03:25:29.934Z,100.00
2022-07-28T03:27:59.321Z,100.00
2022-07-28T03:30:29.880Z,100.00
2022-07-28T03:32:59.844Z,100.00
2022-07-28T03:35:28.685Z,100.00
2022-07-28T03:38:01.293Z,100.00
2022-07-28T03:40:31.095Z,100.00
2022-07-28T03:43:03.372Z,100.00
2022-07-28T03:45:35.127Z,100.00
2022-07-28T03:48:04.610Z,100.00
2022-07-28T03:50:34.471Z,100.00
2022-07-28T03:53:04.629Z,100.00
2022-07-28T03:55:32.754Z,100.00
2022-07-28T03:58:01.488Z,100.00
2022-07-28T04:00:30.586Z,100.00
2022-07-28T04:02:58.700Z,100.00
2022-07-28T04:05:26.928Z,100.00
2022-07-28T04:07:55.074Z,100.00
2022-07-28T04:10:24.693Z,100.00
2022-07-28T04:12:55.086Z,100.00
2022-07-28T04:15:24.295Z,100.00
2022-07-28T04:17:56.163Z,100.00
2022-07-28T04:20:26.280Z,100.00
2022-07-28T04:31:14.417Z,100.00
2022-07-28T04:33:43.233Z,100.00
2022-07-28T04:36:11.872Z,100.00
2022-07-28T04:38:40.476Z,100.00
2022-07-28T04:41:08.568Z,100.00
2022-07-28T04:43:37.512Z,100.00
2022-07-28T04:46:06.255Z,100.00
2022-07-28T04:48:36.481Z,100.00
2022-07-28T04:51:04.977Z,100.00
2022-07-28T04:53:34.276Z,100.00
2022-07-28T04:56:02.952Z,100.00
2022-07-28T04:58:31.471Z,100.00
2022-07-28T05:01:01.111Z,100.00
2022-07-28T05:03:32.809Z,100.00
2022-07-28T05:06:06.060Z,100.00
2022-07-28T05:08:34.073Z,100.00
2022-07-28T05:11:02.052Z,100.00
2022-07-28T05:13:39.655Z,100.00
2022-07-28T05:16:08.739Z,100.00
2022-07-28T05:18:36.774Z,100.00
2022-07-28T05:21:06.356Z,100.00
2022-07-28T05:23:34.616Z,100.00
2022-07-28T05:26:04.524Z,100.00
2022-07-28T05:28:32.879Z,100.00
2022-07-28T05:31:01.397Z,100.00
2022-07-28T05:33:31.924Z,100.00
2022-07-28T05:36:00.304Z,100.00
2022-07-28T05:38:30.851Z,100.00
2022-07-28T05:40:59.860Z,100.00
2022-07-28T05:43:27.871Z,100.00
2022-07-28T05:45:56.274Z,100.00
2022-07-28T05:48:24.683Z,100.00
2022-07-28T05:50:54.323Z,100.00
2022-07-28T05:53:22.576Z,100.00
2022-07-28T05:56:00.315Z,100.00
2022-07-28T05:58:30.319Z,100.00
2022-07-28T06:01:00.296Z,100.00
2022-07-28T06:03:28.837Z,100.00
2022-07-28T06:06:00.811Z,100.00
2022-07-28T06:08:43.535Z,100.00
2022-07-28T06:11:13.027Z,100.00
2022-07-28T06:13:51.218Z,100.00
2022-07-28T06:16:20.796Z,100.00
2022-07-28T06:18:49.163Z,100.00
2022-07-28T06:21:17.351Z,100.00
2022-07-28T06:23:46.256Z,100.00
2022-07-28T06:26:15.627Z,100.00
2022-07-28T06:28:43.657Z,100.00
2022-07-28T06:31:11.769Z,100.00
2022-07-28T06:33:40.137Z,100.00
2022-07-28T06:36:08.280Z,100.00
2022-07-28T06:38:36.476Z,100.00
2022-07-28T06:41:04.830Z,100.00
2022-07-28T06:43:38.798Z,100.00
2022-07-28T06:46:07.818Z,100.00
2022-07-28T06:48:37.881Z,100.00
2022-07-28T06:51:06.109Z,100.00
2022-07-28T06:53:34.850Z,100.00
2022-07-28T06:56:04.814Z,100.00
2022-07-28T06:58:34.882Z,100.00
2022-07-28T07:01:07.943Z,100.00
2022-07-28T07:03:37.062Z,100.00
2022-07-28T07:06:05.095Z,100.00
2022-07-28T07:08:33.258Z,100.00
2022-07-28T07:11:01.453Z,100.00
2022-07-28T07:13:30.166Z,100.00
2022-07-28T07:15:59.782Z,100.00
2022-07-28T07:18:28.225Z,100.00
2022-07-28T07:20:58.079Z,100.00
2022-07-28T07:23:26.355Z,100.00
2022-07-28T07:25:54.957Z,100.00
2022-07-28T07:28:23.715Z,100.00
2022-07-28T07:30:51.847Z,100.00
2022-07-28T07:33:21.387Z,100.00
2022-07-28T07:35:49.712Z,100.00
2022-07-28T07:38:17.791Z,100.00
2022-07-28T07:40:45.962Z,100.00
2022-07-28T07:43:14.413Z,100.00
2022-07-28T07:45:42.569Z,100.00
2022-07-28T07:48:10.909Z,100.00
2022-07-28T07:50:40.383Z,100.00
2022-07-28T07:53:08.632Z,100.00
2022-07-28T07:55:37.658Z,100.00
2022-07-28T07:58:06.301Z,100.00
2022-07-28T08:00:34.670Z,100.00
2022-07-28T08:03:02.945Z,100.00
2022-07-28T08:05:35.706Z,100.00
2022-07-28T08:08:06.396Z,100.00
2022-07-28T08:10:34.746Z,100.00
2022-07-28T08:13:03.390Z,100.00
2022-07-28T08:15:31.768Z,100.00
2022-07-28T08:18:00.097Z,100.00
2022-07-28T08:20:28.493Z,100.00
2022-07-28T08:22:58.209Z,100.00
2022-07-28T08:25:27.776Z,100.00
2022-07-28T08:27:55.776Z,100.00
2022-07-28T08:30:27.436Z,100.00
2022-07-28T08:32:58.427Z,100.00
2022-07-28T08:35:33.777Z,100.00
2022-07-28T08:38:03.986Z,100.00
2022-07-28T08:40:33.813Z,100.00
2022-07-28T08:43:05.238Z,100.00
2022-07-28T08:45:37.324Z,100.00
2022-07-28T08:48:09.687Z,100.00
2022-07-28T08:50:39.047Z,100.00
2022-07-28T08:53:07.935Z,100.00
2022-07-28T08:55:38.251Z,100.00
2022-07-28T08:58:06.455Z,100.00
2022-07-28T09:00:34.547Z,100.00
2022-07-28T09:03:04.303Z,100.00
2022-07-28T09:05:33.373Z,100.00
2022-07-28T09:08:01.451Z,100.00
2022-07-28T09:10:29.549Z,100.00
2022-07-28T09:12:58.947Z,100.00
2022-07-28T09:15:27.140Z,100.00
2022-07-28T09:17:55.562Z,100.00
2022-07-28T09:20:25.044Z,100.00
2022-07-28T09:22:58.297Z,100.00
2022-07-28T09:25:26.954Z,100.00
2022-07-28T09:27:55.446Z,100.00
2022-07-28T09:30:36.932Z,100.00
2022-07-28T09:33:42.088Z,100.00
2022-07-28T09:36:15.815Z,100.00
2022-07-28T09:38:44.161Z,100.00
2022-07-28T09:41:12.501Z,100.00
2022-07-28T09:43:42.338Z,100.00
2022-07-28T09:46:13.064Z,100.00
2022-07-28T09:48:55.373Z,100.00
2022-07-28T09:51:25.605Z,100.00
2022-07-28T09:53:55.482Z,100.00
2022-07-28T09:56:26.129Z,100.00
2022-07-28T09:58:55.816Z,100.00
2022-07-28T10:01:29.910Z,100.00
2022-07-28T10:04:05.346Z,100.00
2022-07-28T10:06:35.660Z,100.00
2022-07-28T10:09:05.848Z,100.00
2022-07-28T10:11:39.317Z,100.00
2022-07-28T10:14:09.748Z,100.00
2022-07-28T10:16:44.046Z,100.00
2022-07-28T10:19:12.226Z,100.00
2022-07-28T10:21:44.140Z,100.00
2022-07-28T10:24:16.408Z,100.00
2022-07-28T10:26:45.501Z,100.00
2022-07-28T10:29:15.419Z,100.00
2022-07-28T10:31:48.487Z,100.00
2022-07-28T10:34:25.037Z,100.00
2022-07-28T10:36:55.972Z,100.00
2022-07-28T10:39:26.098Z,100.00
2022-07-28T10:41:54.364Z,100.00
2022-07-28T10:44:22.896Z,100.00
2022-07-28T10:46:53.411Z,100.00
2022-07-28T10:49:22.177Z,100.00
2022-07-28T10:52:15.166Z,100.00
2022-07-28T10:54:50.428Z,100.00
2022-07-28T10:57:18.947Z,100.00
2022-07-28T11:00:13.406Z,100.00
2022-07-28T11:02:56.919Z,100.00
2022-07-28T11:05:33.797Z,100.00
2022-07-28T11:08:04.341Z,100.00
2022-07-28T11:10:45.397Z,100.00
2022-07-28T11:13:29.014Z,100.00
2022-07-28T11:15:58.303Z,100.00
2022-07-28T11:18:30.118Z,100.00
2022-07-28T11:21:10.898Z,100.00
2022-07-28T11:23:46.235Z,100.00
2022-07-28T11:26:38.114Z,100.00
2022-07-28T11:29:18.521Z,100.00
2022-07-28T11:32:06.344Z,100.00
2022-07-28T11:35:08.503Z,100.00
2022-07-28T11:38:13.259Z,100.00
2022-07-28T11:40:43.702Z,100.00
2022-07-28T11:43:36.290Z,100.00
2022-07-28T11:46:37.326Z,100.00
2022-07-28T11:49:26.206Z,100.00
2022-07-28T11:52:23.525Z,100.00
2022-07-28T11:54:54.060Z,100.00
2022-07-28T11:57:27.394Z,100.00
2022-07-28T12:00:00.443Z,100.00
2022-07-28T12:02:31.496Z,100.00
2022-07-28T12:05:21.951Z,100.00
2022-07-28T12:07:55.459Z,100.00
2022-07-28T12:10:51.941Z,100.00
2022-07-28T12:13:14.161Z,100.00
2022-07-28T12:15:42.199Z,100.00
2022-07-28T12:18:12.295Z,100.00
2022-07-28T12:20:48.618Z,100.00
2022-07-28T12:23:38.895Z,100.00
2022-07-28T12:26:14.712Z,100.00
2022-07-28T12:28:51.249Z,100.00
2022-07-28T12:31:19.298Z,100.00
2022-07-28T12:33:47.445Z,100.00
2022-07-28T12:36:18.896Z,100.00
2022-07-28T12:38:48.657Z,100.00
2022-07-28T12:41:17.031Z,100.00
2022-07-28T12:43:51.287Z,100.00
2022-07-28T12:46:28.270Z,100.00
2022-07-28T12:48:58.106Z,100.00
2022-07-28T12:51:33.910Z,100.00
2022-07-28T12:54:03.661Z,100.00
2022-07-28T12:56:32.044Z,100.00
2022-07-28T12:59:07.304Z,100.00
2022-07-28T13:01:49.088Z,100.00
2022-07-28T13:04:17.986Z,100.00
2022-07-28T13:06:56.497Z,100.00
2022-07-28T13:09:32.819Z,100.00
2022-07-28T13:12:03.559Z,100.00
2022-07-28T13:14:41.142Z,100.00
2022-07-28T13:17:09.308Z,100.00
2022-07-28T13:19:37.395Z,100.00
2022-07-28T13:22:09.237Z,100.00
2022-07-28T13:24:38.991Z,100.00
2022-07-28T13:27:08.767Z,100.00
2022-07-28T13:29:36.945Z,97.76
2022-07-28T13:32:05.026Z,100.00
2022-07-28T13:34:34.082Z,100.00
2022-07-28T13:37:02.043Z,99.83
2022-07-28T13:39:30.022Z,92.28
2022-07-28T13:41:59.584Z,88.51
2022-07-28T13:44:34.737Z,86.62
2022-07-28T13:47:05.840Z,82.75
2022-07-28T13:49:37.268Z,79.89
2022-07-28T13:52:06.832Z,86.23
2022-07-28T13:54:41.289Z,89.03
2022-07-28T13:57:10.724Z,93.37
2022-07-28T13:59:39.100Z,94.94
2022-07-28T14:02:15.004Z,92.16
2022-07-28T14:04:45.951Z,81.03
2022-07-28T14:07:20.426Z,75.80
2022-07-28T14:09:50.150Z,76.72
2022-07-28T14:12:19.574Z,77.77
2022-07-28T14:14:48.513Z,81.46
2022-07-28T14:20:11.731Z,88.83
2022-07-28T14:22:39.727Z,89.30
2022-07-28T14:25:08.266Z,85.83
2022-07-28T14:27:37.644Z,82.87
2022-07-28T14:30:07.371Z,87.84
2022-07-28T14:32:35.953Z,82.08
2022-07-28T14:35:03.932Z,86.34
2022-07-28T14:37:55.183Z,84.88
2022-07-28T14:40:19.885Z,81.76
2022-07-28T14:42:49.328Z,79.70
2022-07-28T14:45:17.386Z,90.52
2022-07-28T14:47:45.734Z,89.03
2022-07-28T14:50:14.220Z,88.83
2022-07-28T14:52:44.987Z,82.61
2022-07-28T14:55:13.593Z,88.20
2022-07-28T14:57:51.727Z,89.82
2022-07-28T15:00:25.180Z,84.58
2022-07-28T15:02:53.658Z,86.86
2022-07-28T15:05:21.899Z,84.26
2022-07-28T15:07:51.913Z,81.27
2022-07-28T15:10:21.579Z,85.21
2022-07-28T15:12:50.080Z,93.08
2022-07-28T15:15:18.298Z,100.00
2022-07-28T15:17:48.223Z,100.00
2022-07-28T15:20:16.494Z,100.00
2022-07-28T15:22:44.443Z,100.00
2022-07-28T15:25:13.185Z,100.00
2022-07-28T15:27:45.379Z,100.00
2022-07-28T15:30:14.128Z,100.00
2022-07-28T15:32:56.101Z,100.00
2022-07-28T15:35:27.303Z,100.00
2022-07-28T15:37:55.991Z,100.00
2022-07-28T15:40:25.221Z,100.00
2022-07-28T15:42:53.246Z,100.00
2022-07-28T15:45:21.234Z,100.00
2022-07-28T15:47:49.810Z,100.00
2022-07-28T15:50:17.868Z,100.00
2022-07-28T15:52:47.866Z,97.50
2022-07-28T15:55:16.339Z,89.63
2022-07-28T15:57:45.251Z,77.97
2022-07-28T16:00:13.848Z,79.03
2022-07-28T16:02:42.096Z,82.88
2022-07-28T16:05:10.189Z,90.37
2022-07-28T16:07:41.911Z,84.79
2022-07-28T16:10:14.215Z,87.54
2022-07-28T16:12:42.279Z,84.32
2022-07-28T16:15:10.607Z,84.87
2022-07-28T16:17:41.612Z,81.25
2022-07-28T16:20:10.831Z,82.01
2022-07-28T16:22:40.666Z,80.17
2022-07-28T16:25:11.859Z,85.41
2022-07-28T16:27:45.854Z,77.65
2022-07-28T16:30:14.343Z,79.79
2022-07-28T16:32:44.284Z,78.06
2022-07-28T16:35:12.333Z,78.03
2022-07-28T16:37:41.211Z,86.52
2022-07-28T16:40:10.760Z,82.42
2022-07-28T16:42:39.628Z,82.02
2022-07-28T16:45:10.685Z,82.91
2022-07-28T16:47:39.026Z,79.68
2022-07-28T16:50:08.339Z,79.65
2022-07-28T16:52:36.418Z,79.63
2022-07-28T16:55:07.055Z,79.58
2022-07-28T16:57:38.570Z,87.40
2022-07-28T17:00:10.579Z,83.47
2022-07-28T17:02:38.507Z,88.54
2022-07-28T17:05:09.675Z,91.31
2022-07-28T17:07:45.163Z,87.22
2022-07-28T17:10:21.176Z,90.25
2022-07-28T17:12:56.397Z,88.01
2022-07-28T17:15:26.344Z,89.33
2022-07-28T17:17:56.563Z,87.17
2022-07-28T17:20:25.337Z,90.83
2022-07-28T17:22:53.574Z,94.20
2022-07-28T17:25:45.694Z,93.02
2022-07-28T17:28:09.913Z,92.30
2022-07-28T17:30:40.457Z,94.96
2022-07-28T17:33:09.438Z,93.37
2022-07-28T17:35:38.544Z,96.49
2022-07-28T17:38:09.112Z,88.52
2022-07-28T17:40:37.924Z,81.86
2022-07-28T17:43:05.951Z,81.15
2022-07-28T17:45:33.948Z,83.13
2022-07-28T17:48:03.980Z,81.47
2022-07-28T17:50:31.979Z,85.96
2022-07-28T17:53:01.707Z,83.25
2022-07-28T17:55:57.651Z,77.53
2022-07-28T17:58:28.017Z,79.83
2022-07-28T18:01:11.046Z,82.00
2022-07-28T18:03:59.386Z,83.47
2022-07-28T18:06:29.937Z,86.46
2022-07-28T18:09:03.806Z,89.44
2022-07-28T18:11:36.058Z,87.32
2022-07-28T18:14:05.934Z,89.07
2022-07-28T18:16:35.163Z,90.03
2022-07-28T18:19:04.653Z,85.42
2022-07-28T18:21:34.887Z,83.23
2022-07-28T18:24:03.971Z,83.85
2022-07-28T18:26:32.071Z,87.34
2022-07-28T18:29:00.470Z,88.72
2022-07-28T18:31:28.967Z,88.07
2022-07-28T18:33:57.062Z,90.19
2022-07-28T18:36:26.455Z,98.00
2022-07-28T18:38:54.376Z,100.00
2022-07-28T18:41:22.756Z,100.00
2022-07-28T18:43:51.007Z,100.00
2022-07-28T18:46:19.163Z,100.00
2022-07-28T18:48:48.512Z,100.00
2022-07-28T18:51:18.376Z,100.00
2022-07-28T18:53:47.843Z,100.00
2022-07-28T18:56:15.963Z,100.00
2022-07-28T18:58:44.320Z,100.00
2022-07-28T19:01:13.933Z,100.00
2022-07-28T19:03:42.154Z,100.00
2022-07-28T19:06:11.649Z,100.00
2022-07-28T19:08:39.641Z,100.00
2022-07-28T19:11:09.036Z,100.00
2022-07-28T19:13:37.363Z,100.00
2022-07-28T19:16:05.791Z,100.00
2022-07-28T19:18:33.810Z,100.00
2022-07-28T19:21:01.784Z,100.00
2022-07-28T19:23:30.462Z,100.00
2022-07-28T19:25:58.829Z,100.00
2022-07-28T19:28:28.326Z,100.00
2022-07-28T19:30:58.502Z,100.00
2022-07-28T19:33:26.926Z,100.00
2022-07-28T19:35:55.193Z,100.00
2022-07-28T19:38:23.197Z,100.00
2022-07-28T19:40:51.240Z,100.00
2022-07-28T19:43:19.348Z,100.00
2022-07-28T19:45:48.655Z,100.00
2022-07-28T19:48:16.634Z,100.00
2022-07-28T19:50:51.157Z,100.00
2022-07-28T19:53:19.997Z,100.00
2022-07-28T19:55:53.356Z,100.00
2022-07-28T19:58:21.677Z,100.00
2022-07-28T20:00:51.332Z,100.00
2022-07-28T20:04:02.966Z,100.00
2022-07-28T20:06:09.817Z,100.00
2022-07-28T20:08:37.944Z,100.00
2022-07-28T20:11:06.235Z,100.00
2022-07-28T20:13:34.128Z,100.00
2022-07-28T20:16:03.540Z,100.00
2022-07-28T20:18:31.590Z,100.00
2022-07-28T20:20:59.654Z,100.00
2022-07-28T20:23:27.602Z,100.00
2022-07-28T20:25:57.574Z,100.00
2022-07-28T20:28:25.587Z,100.00
2022-07-28T20:30:53.602Z,100.00
2022-07-28T20:33:23.031Z,100.00
2022-07-28T20:35:52.750Z,100.00
2022-07-28T20:38:23.328Z,100.00
2022-07-28T20:40:51.354Z,100.00
2022-07-28T20:43:19.305Z,100.00
2022-07-28T20:45:48.209Z,100.00
2022-07-28T20:48:16.173Z,100.00
2022-07-28T20:50:45.622Z,100.00
2022-07-28T20:53:14.002Z,100.00
2022-07-28T20:55:42.027Z,100.00
2022-07-28T20:58:09.994Z,100.00
2022-07-28T21:00:39.029Z,100.00
2022-07-28T21:03:07.370Z,100.00
2022-07-28T21:05:35.977Z,100.00
2022-07-28T21:08:09.454Z,100.00
2022-07-28T21:10:44.043Z,100.00
2022-07-28T21:13:12.016Z,100.00
2022-07-28T21:15:40.047Z,100.00
2022-07-28T21:18:08.062Z,100.00
2022-07-28T21:20:36.723Z,100.00
2022-07-28T21:23:06.314Z,100.00
2022-07-28T21:25:35.562Z,100.00
2022-07-28T21:28:21.307Z,100.00
2022-07-28T21:30:49.347Z,100.00
2022-07-28T21:33:22.739Z,100.00
2022-07-28T21:35:51.459Z,100.00
2022-07-28T21:38:21.823Z,100.00
2022-07-28T21:40:50.268Z,100.00
2022-07-28T21:43:18.153Z,100.00
2022-07-28T21:45:46.746Z,100.00
2022-07-28T21:48:16.823Z,100.00
2022-07-28T21:50:45.238Z,100.00
2022-07-28T21:53:17.126Z,100.00
2022-07-28T21:55:47.532Z,100.00
2022-07-28T21:58:16.462Z,100.00
2022-07-28T22:00:44.520Z,100.00
2022-07-28T22:03:12.475Z,100.00
2022-07-28T22:05:40.609Z,100.00
2022-07-28T22:08:09.402Z,100.00
2022-07-28T22:10:37.508Z,100.00
2022-07-28T22:13:06.925Z,100.00
2022-07-28T22:15:34.905Z,100.00
2022-07-28T22:18:02.894Z,100.00
2022-07-28T22:20:31.125Z,100.00
2022-07-28T22:22:59.080Z,100.00
2022-07-28T22:25:27.086Z,100.00
2022-07-28T22:27:55.091Z,100.00
2022-07-28T22:30:24.392Z,100.00
2022-07-28T22:32:52.410Z,100.00
2022-07-28T22:35:20.581Z,100.00
2022-07-28T22:37:49.427Z,100.00
2022-07-28T22:40:17.533Z,100.00
2022-07-28T22:42:45.906Z,100.00
2022-07-28T22:45:13.868Z,100.00
2022-07-28T22:47:43.495Z,100.00
2022-07-28T22:50:11.568Z,100.00
2022-07-28T22:52:39.551Z,100.00
2022-07-28T22:55:08.696Z,100.00
2022-07-28T22:57:36.672Z,100.00
2022-07-28T23:00:06.516Z,100.00
2022-07-28T23:02:35.852Z,100.00
2022-07-28T23:05:06.928Z,100.00
2022-07-28T23:07:53.553Z,100.00
2022-07-28T23:10:22.966Z,100.00
2022-07-28T23:12:50.956Z,100.00
2022-07-28T23:15:18.992Z,100.00
2022-07-28T23:17:46.956Z,100.00
2022-07-28T23:20:16.463Z,100.00
2022-07-28T23:22:44.928Z,100.00
2022-07-28T23:25:14.160Z,100.00
2022-07-28T23:27:42.140Z,100.00
2022-07-28T23:30:10.869Z,100.00
2022-07-28T23:32:38.908Z,100.00
2022-07-28T23:35:07.555Z,100.00
2022-07-28T23:37:37.011Z,100.00
2022-07-28T23:40:05.804Z,100.00
2022-07-28T23:42:33.846Z,100.00
2022-07-28T23:45:03.240Z,100.00
2022-07-28T23:47:31.391Z,100.00
2022-07-28T23:49:59.567Z,100.00
2022-07-28T23:52:27.905Z,100.00
2022-07-28T23:54:57.414Z,100.00
2022-07-28T23:57:25.695Z,100.00
2022-07-28T23:59:59.314Z,100.00
